Time;durP1;ratioP1;P1;durP2;ratioP2;P2;SDS_P1;SDS_P2;PMS_P1;PMS_P2;Temp;Humidity;BMP_temperature;BMP_pressure;BME280_temperature;BME280_humidity;BME280_pressure;Samples;Min_cycle;Max_cycle;Signal;HPM_P1;HPM_P2
2023/08/05 00:00:04;;;;;;;;;5.50;5.50;;;;;19.00;72.81;101441.63;5001133;28;45470;-66
2023/08/05 00:02:29;;;;;;;;;5.25;5.25;;;;;19.15;72.69;101464.25;5009490;28;45334;-66
2023/08/05 00:04:55;;;;;;;;;7.50;5.50;;;;;19.05;72.77;101458.47;5001307;28;45316;-66
2023/08/05 00:07:20;;;;;;;;;6.75;6.00;;;;;19.06;72.24;101468.34;5001056;28;45405;-66
2023/08/05 00:09:45;;;;;;;;;9.00;6.75;;;;;19.11;72.51;101478.91;5001417;28;45590;-66
2023/08/05 00:12:11;;;;;;;;;7.00;6.00;;;;;19.04;72.57;101472.09;5001102;28;45310;-66
2023/08/05 00:14:36;;;;;;;;;6.25;5.25;;;;;18.94;72.49;101458.19;5001021;28;45520;-66
2023/08/05 00:17:02;;;;;;;;;7.50;6.25;;;;;19.03;72.38;101464.94;5000847;28;46175;-66
2023/08/05 00:19:27;;;;;;;;;6.25;5.00;;;;;18.84;72.62;101436.22;5001222;28;45242;-66
2023/08/05 00:21:53;;;;;;;;;5.50;5.50;;;;;18.85;72.36;101437.97;4983320;28;45346;-66
2023/08/05 00:24:18;;;;;;;;;4.00;4.00;;;;;19.01;72.98;101473.16;5001096;28;45278;-66
2023/08/05 00:26:43;;;;;;;;;3.25;3.25;;;;;18.77;72.67;101431.19;4999503;28;48009;-66
2023/08/05 00:29:09;;;;;;;;;4.00;4.00;;;;;18.70;73.20;101418.00;5009965;28;45388;-66
2023/08/05 00:31:34;;;;;;;;;6.25;6.25;;;;;18.77;72.93;101432.06;5019174;28;45447;-66
2023/08/05 00:33:59;;;;;;;;;5.50;5.50;;;;;18.77;73.22;101436.63;5002693;28;45827;-67
2023/08/05 00:36:25;;;;;;;;;6.25;6.25;;;;;18.84;73.19;101446.16;4989525;28;47359;-66
2023/08/05 00:38:50;;;;;;;;;4.00;2.75;;;;;18.83;73.42;101450.69;4983090;28;45939;-67
2023/08/05 00:41:15;;;;;;;;;6.75;6.75;;;;;18.63;73.45;101413.06;5000821;28;45466;-66
2023/08/05 00:43:41;;;;;;;;;4.00;4.00;;;;;18.67;73.48;101415.47;5000569;28;45397;-67
2023/08/05 00:46:08;;;;;;;;;5.00;5.00;;;;;18.69;73.59;101416.28;5000317;28;45381;-66
2023/08/05 00:48:33;;;;;;;;;6.50;6.00;;;;;18.76;73.71;101424.03;5000664;28;45594;-66
2023/08/05 00:50:59;;;;;;;;;7.50;6.50;;;;;18.79;73.55;101424.72;5000608;28;45480;-66
2023/08/05 00:53:25;;;;;;;;;4.00;4.00;;;;;18.73;73.66;101414.28;5000675;28;45532;-66
2023/08/05 00:55:54;;;;;;;;;4.75;4.75;;;;;18.74;73.86;101415.16;5000213;28;45700;-66
2023/08/05 00:58:20;;;;;;;;;7.00;6.00;;;;;18.71;73.43;101402.69;4982785;28;45425;-66
2023/08/05 01:00:46;;;;;;;;;5.00;5.00;;;;;18.59;73.86;101392.53;5000196;28;45391;-66
2023/08/05 01:03:11;;;;;;;;;6.75;6.25;;;;;18.70;73.90;101420.72;5008371;28;45308;-67
2023/08/05 01:05:38;;;;;;;;;8.00;5.00;;;;;18.76;73.96;101442.97;5000050;28;45749;-67
2023/08/05 01:08:05;;;;;;;;;6.00;5.75;;;;;18.65;73.97;101432.75;5000418;28;45672;-67
2023/08/05 01:10:31;;;;;;;;;5.00;5.00;;;;;18.67;74.07;101445.22;4999069;28;45366;-66
2023/08/05 01:12:56;;;;;;;;;6.75;5.75;;;;;18.66;73.79;101450.72;5000403;28;45330;-66
2023/08/05 01:15:22;;;;;;;;;5.00;4.50;;;;;18.59;74.00;101439.34;4999805;28;45356;-66
2023/08/05 01:17:51;;;;;;;;;6.50;5.25;;;;;18.69;73.83;101464.06;4998815;28;46183;-66
2023/08/05 01:20:19;;;;;;;;;7.00;7.00;;;;;18.71;73.89;101464.88;4996479;28;45652;-67
2023/08/05 01:22:50;;;;;;;;;6.00;6.00;;;;;18.46;74.04;101413.97;5000220;28;46607;-67
2023/08/05 01:25:28;;;;;;;;;6.00;6.00;;;;;18.69;74.12;101455.97;4998500;28;48454;-66
2023/08/05 01:27:56;;;;;;;;;5.25;5.00;;;;;18.55;74.39;101416.16;5000124;28;45443;-66
2023/08/05 01:30:26;;;;;;;;;5.75;5.75;;;;;18.44;74.29;101389.75;5013289;28;45308;-66
2023/08/05 01:32:52;;;;;;;;;5.00;5.00;;;;;18.39;74.14;101389.09;4999910;28;45323;-66
2023/08/05 01:35:21;;;;;;;;;5.00;4.25;;;;;18.52;74.02;101416.34;4999713;28;46084;-66
2023/08/05 01:37:46;;;;;;;;;6.00;5.00;;;;;18.55;74.02;101424.28;4998540;28;45337;-66
2023/08/05 01:40:12;;;;;;;;;4.00;4.00;;;;;18.60;74.37;101437.56;4999845;28;45508;-66
2023/08/05 01:42:38;;;;;;;;;5.75;5.75;;;;;18.36;74.25;101407.31;4999891;28;45464;-66
2023/08/05 01:45:04;;;;;;;;;6.00;5.00;;;;;18.50;74.16;101438.03;4999333;28;45232;-66
2023/08/05 01:47:29;;;;;;;;;5.50;4.75;;;;;18.41;74.26;101414.22;4999568;28;45585;-66
2023/08/05 01:49:54;;;;;;;;;9.25;5.75;;;;;18.52;74.39;101435.25;4999773;28;45449;-66
2023/08/05 01:52:20;;;;;;;;;5.00;5.00;;;;;18.31;74.07;101404.88;4998291;28;45595;-66
2023/08/05 01:54:45;;;;;;;;;4.75;4.75;;;;;18.38;74.08;101424.34;4998239;28;48225;-66
2023/08/05 01:57:10;;;;;;;;;4.75;4.75;;;;;18.52;73.80;101459.59;4999647;28;45400;-66
2023/08/05 01:59:35;;;;;;;;;4.25;4.25;;;;;18.51;74.21;101472.25;4981585;28;45489;-66
2023/08/05 02:02:01;;;;;;;;;5.00;5.00;;;;;18.51;73.98;101485.75;5006301;28;50618;-66
2023/08/05 02:04:26;;;;;;;;;4.50;3.25;;;;;18.38;74.12;101473.00;4982176;28;48421;-66
2023/08/05 02:06:51;;;;;;;;;4.50;4.50;;;;;18.24;74.42;101444.88;4990331;28;45948;-66
2023/08/05 02:09:17;;;;;;;;;6.25;4.75;;;;;18.29;74.25;101441.91;4999528;28;45594;-67
2023/08/05 02:11:42;;;;;;;;;5.75;4.00;;;;;18.31;74.18;101430.06;4999359;28;45447;-67
2023/08/05 02:14:07;;;;;;;;;4.25;4.25;;;;;18.41;74.08;101446.66;4997877;28;46413;-66
2023/08/05 02:16:33;;;;;;;;;4.00;3.75;;;;;18.20;74.34;101410.00;4999265;28;45373;-66
2023/08/05 02:18:59;;;;;;;;;4.00;4.00;;;;;18.39;74.16;101439.59;4997929;28;45434;-66
2023/08/05 02:21:24;;;;;;;;;5.00;5.00;;;;;18.42;74.26;101415.09;4999372;28;45446;-67
2023/08/05 02:23:50;;;;;;;;;4.50;4.50;;;;;18.23;74.22;101372.88;4997712;28;47999;-67
2023/08/05 02:26:16;;;;;;;;;5.00;5.00;;;;;18.35;74.58;101397.47;4981542;28;45395;-66
2023/08/05 02:28:41;;;;;;;;;5.00;5.00;;;;;18.35;74.15;101386.66;5003834;28;45426;-66
2023/08/05 02:31:06;;;;;;;;;5.50;4.50;;;;;18.20;74.46;101350.53;5014228;28;45348;-67
2023/08/05 02:33:32;;;;;;;;;7.50;4.25;;;;;18.39;74.13;101389.09;4998905;28;45251;-67
2023/08/05 02:35:58;;;;;;;;;4.75;4.75;;;;;18.40;74.34;101393.56;4999053;28;45317;-66
2023/08/05 02:38:23;;;;;;;;;5.75;5.00;;;;;18.18;74.81;101355.16;4999348;28;45359;-67
2023/08/05 02:40:49;;;;;;;;;5.00;5.00;;;;;18.32;74.18;101369.63;4981280;28;45386;-67
2023/08/05 02:43:14;;;;;;;;;5.75;5.75;;;;;18.33;74.46;101357.88;4997597;28;47197;-66
2023/08/05 02:45:40;;;;;;;;;4.50;3.75;;;;;18.32;74.61;101348.03;4998705;28;45606;-66
2023/08/05 02:48:06;;;;;;;;;3.75;3.75;;;;;18.33;74.45;101340.81;4998893;28;45491;-66
2023/08/05 02:50:31;;;;;;;;;5.25;4.00;;;;;18.32;74.48;101336.34;4998926;28;45728;-66
2023/08/05 02:52:56;;;;;;;;;5.00;5.00;;;;;18.30;74.37;101333.72;5001585;28;45600;-66
2023/08/05 02:55:22;;;;;;;;;6.00;4.75;;;;;18.24;74.42;101327.78;4984544;28;45388;-67
2023/08/05 02:57:47;;;;;;;;;7.00;5.25;;;;;18.09;74.64;101299.78;5002524;28;45368;-66
2023/08/05 03:00:13;;;;;;;;;5.75;5.75;;;;;18.11;74.95;101304.16;5002124;28;45484;-67
2023/08/05 03:02:38;;;;;;;;;4.00;3.50;;;;;18.16;74.53;101317.41;5009320;28;46740;-66
2023/08/05 03:05:04;;;;;;;;;6.00;6.00;;;;;18.25;74.95;101326.84;5002218;28;45362;-66
2023/08/05 03:07:29;;;;;;;;;6.25;6.25;;;;;18.27;75.26;101333.03;5002251;28;45584;-67
2023/08/05 03:09:54;;;;;;;;;5.00;4.50;;;;;17.95;75.37;101292.44;5000937;28;45258;-66
2023/08/05 03:12:20;;;;;;;;;8.00;5.75;;;;;18.06;74.88;101311.66;5001799;28;45315;-66
2023/08/05 03:14:46;;;;;;;;;5.75;4.50;;;;;18.08;75.41;101312.44;4984122;28;45382;-66
2023/08/05 03:17:11;;;;;;;;;5.75;5.00;;;;;18.28;74.85;101342.91;4984299;28;45981;-66
2023/08/05 03:19:36;;;;;;;;;4.25;4.25;;;;;18.04;75.43;101305.47;5002136;28;45348;-66
2023/08/05 03:22:02;;;;;;;;;4.50;4.50;;;;;18.20;75.34;101337.03;5001714;28;45458;-67
2023/08/05 03:24:27;;;;;;;;;1.00;1.00;;;;;18.24;74.96;101341.31;4984260;28;45339;-66
2023/08/05 03:26:52;;;;;;;;;5.50;5.25;;;;;18.13;75.07;101325.69;5002009;28;45603;-66
2023/08/05 03:29:18;;;;;;;;;6.50;4.75;;;;;18.18;75.09;101336.25;5012852;28;45600;-66
2023/08/05 03:31:43;;;;;;;;;4.50;4.50;;;;;18.17;75.03;101329.09;5003523;28;45652;-66
2023/08/05 03:34:08;;;;;;;;;2.75;2.75;;;;;18.12;75.04;101332.03;4984006;28;45314;-66
2023/08/05 03:36:34;;;;;;;;;4.00;4.00;;;;;18.02;75.07;101315.47;5000522;28;45496;-66
2023/08/05 03:38:59;;;;;;;;;5.50;5.50;;;;;17.98;75.22;101304.94;5001791;28;45625;-67
2023/08/05 03:41:24;;;;;;;;;7.25;7.25;;;;;18.00;75.50;101303.00;5001479;28;45856;-66
2023/08/05 03:43:50;;;;;;;;;5.50;5.50;;;;;17.94;75.61;101293.38;5001229;28;51432;-66
2023/08/05 03:46:15;;;;;;;;;4.00;4.00;;;;;18.15;75.57;101334.59;5001575;28;45382;-66
2023/08/05 03:48:41;;;;;;;;;5.25;4.75;;;;;18.10;75.20;101331.25;5001594;28;45448;-67
2023/08/05 03:51:06;;;;;;;;;5.50;5.50;;;;;18.09;75.78;101326.81;4983615;28;47204;-67
2023/08/05 03:53:31;;;;;;;;;5.75;5.75;;;;;17.97;75.49;101306.72;5001555;28;45429;-67
2023/08/05 03:55:57;;;;;;;;;4.25;3.50;;;;;18.04;75.58;101318.97;5001470;28;45371;-66
2023/08/05 03:58:23;;;;;;;;;3.75;3.75;;;;;18.05;75.43;101311.72;5001431;28;45448;-66
2023/08/05 04:00:48;;;;;;;;;6.25;5.75;;;;;18.06;75.57;101316.16;5001037;28;45633;-66
2023/08/05 04:03:14;;;;;;;;;4.50;4.50;;;;;17.89;75.58;101284.66;5007209;28;45398;-66
2023/08/05 04:05:40;;;;;;;;;5.50;5.50;;;;;17.91;75.50;101278.25;4983617;28;45420;-66
2023/08/05 04:08:05;;;;;;;;;5.75;5.75;;;;;18.00;76.12;101284.09;5001335;28;45258;-67
2023/08/05 04:10:33;;;;;;;;;6.50;5.00;;;;;17.87;76.05;101252.34;5000072;28;47422;-66
2023/08/05 04:12:58;;;;;;;;;7.00;5.50;;;;;18.04;76.03;101272.16;4983339;28;45608;-67
2023/08/05 04:15:27;;;;;;;;;4.75;4.75;;;;;17.90;75.93;101252.19;5001054;28;45328;-66
2023/08/05 04:17:57;;;;;;;;;5.00;4.75;;;;;17.93;75.69;101262.81;4999800;28;45474;-66
2023/08/05 04:20:22;;;;;;;;;5.50;5.50;;;;;17.99;76.07;101268.84;5000904;28;46280;-66
2023/08/05 04:22:49;;;;;;;;;5.50;4.75;;;;;17.92;76.31;101241.28;4983338;28;45254;-66
2023/08/05 04:25:15;;;;;;;;;4.00;4.00;;;;;17.90;75.83;101238.69;5001138;28;45467;-66
2023/08/05 04:27:40;;;;;;;;;4.75;4.50;;;;;17.71;76.07;101209.09;4983393;28;45664;-66
2023/08/05 04:30:07;;;;;;;;;5.00;5.00;;;;;17.86;76.35;101233.50;5013956;28;46585;-66
2023/08/05 04:32:33;;;;;;;;;4.50;4.50;;;;;17.91;76.42;101245.84;4992035;28;45416;-66
2023/08/05 04:34:58;;;;;;;;;5.75;5.75;;;;;18.00;76.29;101265.19;5000754;28;45389;-66
2023/08/05 04:37:24;;;;;;;;;4.50;4.00;;;;;17.84;75.78;101241.69;5000826;28;45380;-66
2023/08/05 04:39:49;;;;;;;;;5.75;5.75;;;;;17.94;75.99;101264.56;5000745;28;46331;-66
2023/08/05 04:42:15;;;;;;;;;6.75;5.00;;;;;17.97;76.20;101271.63;5000934;28;45443;-66
2023/08/05 04:44:41;;;;;;;;;5.00;5.00;;;;;17.93;76.48;101262.81;5000528;28;45363;-67
2023/08/05 04:47:07;;;;;;;;;4.00;4.00;;;;;17.95;75.79;101270.84;5000688;28;45269;-67
2023/08/05 04:49:33;;;;;;;;;4.00;4.00;;;;;17.94;76.08;101263.69;5000546;28;45621;-66
2023/08/05 04:51:59;;;;;;;;;3.75;3.75;;;;;17.80;75.56;101247.34;4982908;28;45254;-66
2023/08/05 04:54:24;;;;;;;;;5.25;5.25;;;;;17.83;75.64;101258.84;5000571;28;45267;-66
2023/08/05 04:56:50;;;;;;;;;5.75;5.75;;;;;17.91;75.43;101269.28;5000560;28;45743;-67
2023/08/05 04:59:15;;;;;;;;;5.50;5.00;;;;;17.80;75.53;101253.63;4999036;28;48340;-66
2023/08/05 05:01:40;;;;;;;;;4.25;4.00;;;;;17.91;75.77;101271.97;5005690;28;45411;-66
2023/08/05 05:04:05;;;;;;;;;5.50;5.50;;;;;17.68;75.64;101225.47;5002548;28;45477;-66
2023/08/05 05:06:31;;;;;;;;;6.00;5.00;;;;;17.92;76.14;101261.06;5000612;28;45398;-67
2023/08/05 05:08:56;;;;;;;;;7.00;6.50;;;;;17.67;75.55;101212.91;4982414;28;47284;-67
2023/08/05 05:11:21;;;;;;;;;5.50;5.25;;;;;17.69;75.30;101210.13;4982635;28;45281;-66
2023/08/05 05:13:50;;;;;;;;;6.00;5.75;;;;;17.88;75.80;101248.69;5000160;28;45476;-66
2023/08/05 05:16:17;;;;;;;;;5.00;5.00;;;;;17.66;75.98;101211.19;4999962;28;45299;-66
2023/08/05 05:18:42;;;;;;;;;4.25;4.25;;;;;17.53;75.86;101194.78;4999947;28;46185;-66
2023/08/05 05:21:08;;;;;;;;;5.50;4.00;;;;;17.55;75.69;101182.06;5000274;28;45339;-66
2023/08/05 05:23:33;;;;;;;;;4.25;4.25;;;;;17.73;75.54;101214.41;5000078;28;45247;-66
2023/08/05 05:25:59;;;;;;;;;4.00;4.00;;;;;17.76;75.87;101217.81;4998870;28;45646;-67
2023/08/05 05:28:24;;;;;;;;;5.50;4.50;;;;;17.71;75.99;101206.41;5003436;28;45957;-66
2023/08/05 05:30:49;;;;;;;;;5.00;4.25;;;;;17.81;76.33;101213.97;5009255;28;53438;-66
2023/08/05 05:33:15;;;;;;;;;5.00;5.00;;;;;17.81;75.91;101216.66;4988860;28;45382;-66
2023/08/05 05:35:40;;;;;;;;;7.25;4.00;;;;;17.76;76.05;101217.81;5009714;28;45385;-66
2023/08/05 05:38:05;;;;;;;;;6.75;6.00;;;;;17.60;75.86;101185.38;4982081;28;47104;-66
2023/08/05 05:40:31;;;;;;;;;2.75;2.50;;;;;17.75;76.32;101213.34;4999994;28;45444;-66
2023/08/05 05:42:56;;;;;;;;;6.75;5.50;;;;;17.69;76.60;101200.22;4982081;28;45492;-66
2023/08/05 05:45:21;;;;;;;;;6.75;6.75;;;;;17.66;76.30;101186.88;4981864;28;46122;-66
2023/08/05 05:47:47;;;;;;;;;5.00;5.00;;;;;17.72;76.20;101200.03;4981734;28;47839;-66
2023/08/05 05:50:12;;;;;;;;;2.00;2.00;;;;;17.48;76.35;101167.16;4999770;28;45389;-66
2023/08/05 05:52:37;;;;;;;;;5.00;5.00;;;;;17.71;76.36;101202.84;4999846;28;45631;-66
2023/08/05 05:55:03;;;;;;;;;1.75;1.75;;;;;17.68;76.55;101194.91;4999610;28;45594;-66
2023/08/05 05:57:29;;;;;;;;;6.25;4.75;;;;;17.62;76.66;101177.19;4999434;28;46376;-67
2023/08/05 05:59:56;;;;;;;;;5.50;5.50;;;;;17.74;76.23;101191.84;4999413;28;45400;-66
2023/08/05 06:02:21;;;;;;;;;5.50;4.50;;;;;17.72;76.68;101169.47;5007025;28;45381;-66
2023/08/05 06:04:47;;;;;;;;;5.25;5.00;;;;;17.62;76.76;101152.91;4999601;28;45381;-67
2023/08/05 06:07:13;;;;;;;;;4.00;4.00;;;;;17.76;76.62;101168.34;4999332;28;46756;-66
2023/08/05 06:09:38;;;;;;;;;6.00;5.00;;;;;17.57;76.68;101138.78;4980517;28;45477;-67
2023/08/05 06:12:04;;;;;;;;;6.75;5.00;;;;;17.78;76.88;101163.72;4998952;28;45536;-66
2023/08/05 06:14:29;;;;;;;;;3.75;3.00;;;;;17.75;77.09;101156.66;4997911;28;45460;-66
2023/08/05 06:16:55;;;;;;;;;5.75;5.00;;;;;17.73;76.96;101153.19;4999168;28;45658;-66
2023/08/05 06:19:20;;;;;;;;;6.00;6.00;;;;;17.76;76.47;101153.00;4999408;28;45408;-66
2023/08/05 06:21:46;;;;;;;;;5.00;5.00;;;;;17.79;76.63;101149.25;4999325;28;45481;-66
2023/08/05 06:24:11;;;;;;;;;5.00;4.00;;;;;17.86;76.75;101149.78;4987902;28;45561;-66
2023/08/05 06:26:37;;;;;;;;;5.75;5.50;;;;;17.73;76.79;101134.28;4998066;28;45939;-66
2023/08/05 06:29:03;;;;;;;;;7.00;5.50;;;;;17.74;76.82;101144.13;5006816;28;46096;-66
2023/08/05 06:31:28;;;;;;;;;6.75;6.75;;;;;17.83;76.74;101148.13;5003301;28;45358;-67
2023/08/05 06:33:54;;;;;;;;;5.00;5.00;;;;;17.65;76.81;101123.03;4999000;28;45643;-67
2023/08/05 06:36:19;;;;;;;;;6.25;6.00;;;;;17.73;76.57;101119.91;4981236;28;48267;-66
2023/08/05 06:38:44;;;;;;;;;5.00;5.00;;;;;17.91;76.52;101139.66;4998988;28;49427;-66
2023/08/05 06:41:10;;;;;;;;;5.00;5.00;;;;;17.89;76.79;101128.03;4998992;28;45324;-66
2023/08/05 06:43:35;;;;;;;;;8.00;5.00;;;;;17.86;76.30;101112.88;4999055;28;45254;-67
2023/08/05 06:46:00;;;;;;;;;4.25;4.00;;;;;17.91;76.34;101120.75;4998664;28;45264;-67
2023/08/05 06:48:26;;;;;;;;;4.00;4.00;;;;;17.92;76.52;101125.16;4998972;28;45279;-66
2023/08/05 06:50:51;;;;;;;;;5.00;5.00;;;;;17.74;76.61;101089.25;4999018;28;46407;-66
2023/08/05 06:53:17;;;;;;;;;5.75;5.75;;;;;17.91;76.65;101126.16;4998988;28;45417;-66
2023/08/05 06:55:42;;;;;;;;;4.00;4.00;;;;;17.98;77.07;101141.03;4998656;28;46225;-66
2023/08/05 06:58:08;;;;;;;;;4.00;3.25;;;;;18.01;76.25;101137.25;4998992;28;45307;-66
2023/08/05 07:00:33;;;;;;;;;6.00;4.00;;;;;17.99;76.83;101126.53;4997365;28;45277;-66
2023/08/05 07:02:58;;;;;;;;;4.00;4.00;;;;;18.04;76.37;101129.00;4997182;28;45605;-66
2023/08/05 07:05:24;;;;;;;;;3.25;3.00;;;;;18.07;76.61;101126.97;5018171;28;46158;-66
2023/08/05 07:07:49;;;;;;;;;3.75;3.00;;;;;17.86;76.47;101088.56;5018664;28;45278;-66
2023/08/05 07:10:16;;;;;;;;;3.50;3.50;;;;;17.88;76.33;101091.22;5018487;28;45447;-67
2023/08/05 07:12:41;;;;;;;;;3.00;3.00;;;;;17.98;76.25;101102.34;5018653;28;45417;-66
2023/08/05 07:15:07;;;;;;;;;1.75;1.75;;;;;17.89;75.80;101076.72;5000120;28;47055;-66
2023/08/05 07:17:32;;;;;;;;;3.00;3.00;;;;;17.96;76.08;101086.22;5018460;28;45385;-66
2023/08/05 07:19:58;;;;;;;;;3.00;1.00;;;;;17.85;75.92;101061.63;5018445;28;45447;-66
2023/08/05 07:22:23;;;;;;;;;1.00;1.00;;;;;18.05;75.61;101099.19;5018434;28;45377;-66
2023/08/05 07:24:49;;;;;;;;;2.25;1.25;;;;;17.98;75.46;101091.56;5018246;28;46198;-67
2023/08/05 07:27:14;;;;;;;;;1.75;1.75;;;;;17.96;75.81;101083.53;5018350;28;45381;-66
2023/08/05 07:29:43;;;;;;;;;1.00;1.00;;;;;18.03;75.34;101093.00;4998870;28;45381;-66
2023/08/05 07:32:08;;;;;;;;;2.50;2.50;;;;;18.05;75.40;101093.78;4992797;28;45584;-66
2023/08/05 07:34:34;;;;;;;;;1.75;1.75;;;;;17.97;74.88;101074.44;4998183;28;45274;-66
2023/08/05 07:37:00;;;;;;;;;1.75;1.75;;;;;18.12;75.33;101080.78;4998411;28;45751;-66
2023/08/05 07:39:33;;;;;;;;;1.50;1.50;;;;;18.17;75.12;101088.63;5001752;28;45331;-66
2023/08/05 07:41:58;;;;;;;;;1.50;1.50;;;;;18.22;74.45;101094.63;5001863;28;45392;-66
2023/08/05 07:44:24;;;;;;;;;1.50;1.50;;;;;18.06;74.49;101067.63;5001142;28;45421;-66
2023/08/05 07:46:52;;;;;;;;;2.50;1.50;;;;;18.29;73.86;101106.81;5001565;28;45342;-66
2023/08/05 07:49:17;;;;;;;;;1.50;1.50;;;;;18.21;74.53;101098.28;5001746;28;45525;-66
2023/08/05 07:51:46;;;;;;;;;2.25;1.50;;;;;18.35;74.26;101098.34;5001663;28;45398;-66
2023/08/05 07:54:11;;;;;;;;;1.25;1.25;;;;;18.36;74.18;101091.09;5001307;28;45328;-66
2023/08/05 07:56:39;;;;;;;;;1.00;1.00;;;;;18.28;73.54;101064.56;5001520;28;45264;-66
2023/08/05 07:59:04;;;;;;;;;1.00;1.00;;;;;18.45;73.38;101101.38;5001588;28;45246;-66
2023/08/05 08:01:33;;;;;;;;;2.00;2.00;;;;;18.31;73.48;101064.38;5004022;28;45871;-66
2023/08/05 08:04:02;;;;;;;;;0.75;0.75;;;;;18.42;73.73;101078.09;5005183;28;45433;-67
2023/08/05 08:06:28;;;;;;;;;0.75;0.75;;;;;18.54;72.50;101078.31;5001466;28;45332;-66
2023/08/05 08:08:53;;;;;;;;;1.75;1.75;;;;;18.53;73.05;101072.06;5000018;28;45453;-66
2023/08/05 08:11:19;;;;;;;;;2.25;2.25;;;;;18.52;73.09;101063.06;5000021;28;45701;-66
2023/08/05 08:13:44;;;;;;;;;0.50;0.50;;;;;18.42;73.18;101036.69;5001123;28;45325;-66
2023/08/05 08:16:09;;;;;;;;;0.75;0.75;;;;;18.47;72.96;101043.56;4983277;28;45518;-67
2023/08/05 08:18:36;;;;;;;;;0.50;0.50;;;;;18.60;72.53;101059.03;4983576;28;45498;-66
2023/08/05 08:21:03;;;;;;;;;1.25;1.25;;;;;18.54;72.79;101049.44;5001231;28;45480;-66
2023/08/05 08:23:29;;;;;;;;;1.50;1.25;;;;;18.41;72.71;101025.03;4999502;28;47228;-66
2023/08/05 08:25:57;;;;;;;;;2.00;2.00;;;;;18.66;72.68;101055.94;5001082;28;45468;-66
2023/08/05 08:28:22;;;;;;;;;1.75;1.75;;;;;18.50;72.70;101029.84;5004635;28;45639;-66
2023/08/05 08:30:54;;;;;;;;;3.25;1.00;;;;;18.65;71.98;101052.38;5010429;28;50629;-66
2023/08/05 08:33:19;;;;;;;;;1.25;1.25;;;;;18.64;72.59;101053.34;4985894;28;47665;-66
2023/08/05 08:35:45;;;;;;;;;1.00;1.00;;;;;18.47;72.55;101013.81;5000889;28;45530;-67
2023/08/05 08:38:10;;;;;;;;;1.75;0.75;;;;;18.69;72.24;101053.06;5000725;28;46230;-66
2023/08/05 08:40:35;;;;;;;;;1.00;1.00;;;;;18.62;71.89;101035.47;5000884;28;45238;-66
2023/08/05 08:43:02;;;;;;;;;1.75;0.75;;;;;18.67;72.91;101052.28;5000758;28;45491;-67
2023/08/05 08:45:33;;;;;;;;;1.50;1.50;;;;;18.69;72.12;101053.94;5000391;28;45266;-66
2023/08/05 08:48:00;;;;;;;;;1.00;1.00;;;;;18.72;72.34;101054.72;5000664;28;45401;-66
2023/08/05 08:50:26;;;;;;;;;2.00;2.00;;;;;18.69;72.42;101040.44;5000004;28;45448;-66
2023/08/05 08:52:57;;;;;;;;;1.75;1.75;;;;;18.69;72.16;101037.72;4999228;28;47470;-66
2023/08/05 08:55:24;;;;;;;;;1.25;1.25;;;;;18.57;72.20;101018.66;4982761;28;45564;-66
2023/08/05 08:57:50;;;;;;;;;1.00;1.00;;;;;18.70;71.77;101033.16;5000719;28;45383;-67
2023/08/05 09:00:15;;;;;;;;;2.00;2.00;;;;;18.59;72.22;101003.22;5000367;28;45444;-66
2023/08/05 09:02:41;;;;;;;;;1.00;1.00;;;;;18.82;72.25;101037.81;5008942;28;45533;-66
2023/08/05 09:05:07;;;;;;;;;5.00;5.00;;;;;18.82;71.44;101039.66;5000496;28;45395;-66
2023/08/05 09:07:34;;;;;;;;;1.00;1.00;;;;;18.60;71.45;101005.84;5000473;28;45366;-67
2023/08/05 09:10:04;;;;;;;;;1.00;1.00;;;;;18.66;71.89;101007.28;4999130;28;45536;-66
2023/08/05 09:12:31;;;;;;;;;1.75;1.75;;;;;18.80;72.18;101018.09;4982464;28;47288;-66
2023/08/05 09:14:57;;;;;;;;;3.00;2.00;;;;;18.77;73.35;100998.50;5000186;28;45593;-66
2023/08/05 09:17:22;;;;;;;;;2.00;2.00;;;;;18.81;73.32;100997.34;5000247;28;45499;-66
2023/08/05 09:19:48;;;;;;;;;1.00;1.00;;;;;18.74;73.17;100974.34;5000316;28;45376;-66
2023/08/05 09:22:13;;;;;;;;;2.00;2.00;;;;;18.71;72.98;100970.03;4999970;28;46280;-66
2023/08/05 09:24:38;;;;;;;;;1.00;1.00;;;;;18.92;72.23;100988.59;4998851;28;45687;-67
2023/08/05 09:27:04;;;;;;;;;1.50;1.50;;;;;18.90;71.74;100988.69;5000066;28;45314;-67
2023/08/05 09:29:30;;;;;;;;;1.00;1.00;;;;;18.79;71.99;100961.41;5012540;28;45499;-66
2023/08/05 09:32:02;;;;;;;;;1.25;1.25;;;;;18.84;72.03;100957.50;5000378;28;46280;-66
2023/08/05 09:34:34;;;;;;;;;2.00;1.00;;;;;19.00;71.75;100980.84;4999873;28;45342;-66
2023/08/05 09:37:01;;;;;;;;;1.50;1.50;;;;;18.99;71.56;100971.00;5000086;28;45508;-66
2023/08/05 09:39:30;;;;;;;;;2.75;1.50;;;;;19.00;71.71;100976.31;4998554;28;45574;-66
2023/08/05 09:41:56;;;;;;;;;2.25;2.00;;;;;19.02;71.80;100955.44;4999787;28;46994;-66
2023/08/05 09:44:21;;;;;;;;;1.75;1.00;;;;;19.01;71.71;100967.25;4998197;28;45441;-66
2023/08/05 09:46:46;;;;;;;;;1.00;1.00;;;;;19.02;71.35;100962.69;4999954;28;45512;-67
2023/08/05 09:49:17;;;;;;;;;2.00;2.00;;;;;18.98;71.54;100958.47;4999709;28;45465;-66
2023/08/05 09:51:44;;;;;;;;;2.25;2.25;;;;;18.96;71.50;100955.84;4998273;28;47621;-67
2023/08/05 09:54:13;;;;;;;;;2.00;2.00;;;;;18.82;71.85;100937.75;4998215;28;46019;-66
2023/08/05 09:56:39;;;;;;;;;2.25;2.25;;;;;18.83;72.09;100925.16;5000027;28;45401;-66
2023/08/05 09:59:07;;;;;;;;;1.50;1.50;;;;;18.98;72.68;100943.09;4981715;28;45576;-66
2023/08/05 10:01:36;;;;;;;;;1.50;1.50;;;;;18.90;72.96;100920.22;5003969;28;45319;-66
2023/08/05 10:04:02;;;;;;;;;2.25;1.00;;;;;18.81;73.32;100908.97;5001203;28;45687;-67
2023/08/05 10:06:28;;;;;;;;;3.00;3.00;;;;;18.94;73.72;100919.03;5001716;28;45413;-66
2023/08/05 10:08:55;;;;;;;;;2.00;2.00;;;;;18.99;73.08;100927.72;5001035;28;45642;-67
2023/08/05 10:11:25;;;;;;;;;3.25;2.00;;;;;18.73;73.76;100867.16;5008796;28;46120;-66
2023/08/05 10:13:53;;;;;;;;;1.00;1.00;;;;;18.97;74.26;100903.47;4999277;28;45469;-66
2023/08/05 10:16:19;;;;;;;;;2.00;2.00;;;;;18.97;74.47;100925.09;4998039;28;45416;-66
2023/08/05 10:18:45;;;;;;;;;2.00;2.00;;;;;18.99;74.65;100927.72;4981359;28;45496;-67
2023/08/05 10:21:11;;;;;;;;;4.00;3.25;;;;;18.91;74.96;100895.78;4981607;28;48509;-66
2023/08/05 10:23:37;;;;;;;;;1.75;1.75;;;;;18.88;74.65;100883.31;4999114;28;45412;-66
2023/08/05 10:26:05;;;;;;;;;2.00;2.00;;;;;18.86;74.56;100890.66;4981660;28;45299;-66
2023/08/05 10:28:34;;;;;;;;;2.25;2.25;;;;;18.94;74.55;100911.78;5003537;28;45524;-66
2023/08/05 10:31:03;;;;;;;;;2.00;1.75;;;;;18.73;74.78;100880.66;5007283;28;45498;-66
2023/08/05 10:33:29;;;;;;;;;1.50;1.50;;;;;18.82;74.77;100888.19;4982307;28;45532;-67
2023/08/05 10:36:06;;;;;;;;;2.25;2.25;;;;;18.83;75.02;100882.72;4999181;28;45350;-66
2023/08/05 10:38:41;;;;;;;;;3.00;3.00;;;;;18.94;75.66;100886.56;5006337;28;45432;-66
2023/08/05 10:41:10;;;;;;;;;2.00;2.00;;;;;18.99;76.32;100887.13;5000969;28;47178;-66
2023/08/05 10:43:38;;;;;;;;;2.00;2.00;;;;;19.01;76.31;100890.59;5018740;28;45313;-66
2023/08/05 10:46:06;;;;;;;;;3.50;2.00;;;;;19.01;76.05;100882.47;5018737;28;45330;-66
2023/08/05 10:48:44;;;;;;;;;2.75;2.75;;;;;19.03;75.96;100869.75;5018803;28;45572;-66
2023/08/05 10:51:13;;;;;;;;;1.50;1.50;;;;;19.06;76.24;100864.13;5018691;28;45947;-66
2023/08/05 10:53:43;;;;;;;;;2.50;2.50;;;;;19.10;76.90;100854.84;5018710;28;45401;-66
2023/08/05 10:56:11;;;;;;;;;3.00;3.00;;;;;18.95;76.25;100824.25;5000815;28;45432;-66
2023/08/05 10:58:47;;;;;;;;;2.75;2.00;;;;;18.95;76.12;100810.72;5018727;28;45370;-66
2023/08/05 11:01:12;;;;;;;;;2.00;2.00;;;;;18.98;75.70;100788.03;5000438;28;47382;-66
2023/08/05 11:03:47;;;;;;;;;2.75;2.75;;;;;19.16;75.95;100803.03;5005330;28;45302;-66
2023/08/05 11:06:14;;;;;;;;;2.00;2.00;;;;;19.05;75.93;100789.34;4988546;28;45368;-66
2023/08/05 11:08:41;;;;;;;;;2.00;2.00;;;;;19.07;76.07;100777.44;5018676;28;45334;-67
2023/08/05 11:11:13;;;;;;;;;3.00;3.00;;;;;19.23;76.24;100789.94;5000704;28;47378;-67
2023/08/05 11:13:41;;;;;;;;;3.50;3.50;;;;;19.24;76.10;100786.25;5020638;28;45523;-66
2023/08/05 11:16:13;;;;;;;;;3.50;3.50;;;;;19.30;75.44;100779.56;5021878;28;45380;-67
2023/08/05 11:18:40;;;;;;;;;4.75;3.75;;;;;19.30;75.04;100771.47;5021895;28;45385;-66